sensor_id;sensor_type;location;lat;lon;timestamp;temperature;humidity
18805;DHT22;9530;48.930;9.526;2022-10-14T00:01:30;12.50;99.90
18805;DHT22;9530;48.930;9.526;2022-10-14T00:03:58;12.40;99.90
18805;DHT22;9530;48.930;9.526;2022-10-14T00:06:28;12.50;99.90
18805;DHT22;9530;48.930;9.526;2022-10-14T00:08:55;12.50;99.90
18805;DHT22;9530;48.930;9.526;2022-10-14T00:11:26;12.50;99.90
18805;DHT22;9530;48.930;9.526;2022-10-14T00:13:54;12.50;99.90
18805;DHT22;9530;48.930;9.526;2022-10-14T00:16:24;12.50;99.90
18805;DHT22;9530;48.930;9.526;2022-10-14T00:18:51;12.50;99.90
18805;DHT22;9530;48.930;9.526;2022-10-14T00:21:18;12.50;99.90
18805;DHT22;9530;48.930;9.526;2022-10-14T00:23:47;12.50;99.90
18805;DHT22;9530;48.930;9.526;2022-10-14T00:26:15;12.50;99.90
18805;DHT22;9530;48.930;9.526;2022-10-14T00:28:42;12.50;99.90
18805;DHT22;9530;48.930;9.526;2022-10-14T00:31:09;12.50;99.90
18805;DHT22;9530;48.930;9.526;2022-10-14T00:33:36;12.50;99.90
18805;DHT22;9530;48.930;9.526;2022-10-14T00:36:05;12.50;99.90
18805;DHT22;9530;48.930;9.526;2022-10-14T00:38:32;12.50;99.90
18805;DHT22;9530;48.930;9.526;2022-10-14T00:41:01;12.50;99.90
18805;DHT22;9530;48.930;9.526;2022-10-14T00:43:28;12.50;99.90
18805;DHT22;9530;48.930;9.526;2022-10-14T00:45:54;12.50;99.90
18805;DHT22;9530;48.930;9.526;2022-10-14T00:48:23;12.50;99.90
18805;DHT22;9530;48.930;9.526;2022-10-14T00:50:53;12.50;99.90
18805;DHT22;9530;48.930;9.526;2022-10-14T00:53:22;12.50;99.90
18805;DHT22;9530;48.930;9.526;2022-10-14T00:55:48;12.50;99.90
18805;DHT22;9530;48.930;9.526;2022-10-14T00:58:16;12.50;99.90
18805;DHT22;9530;48.930;9.526;2022-10-14T01:00:43;12.50;99.90
18805;DHT22;9530;48.930;9.526;2022-10-14T01:03:17;12.50;99.90
18805;DHT22;9530;48.930;9.526;2022-10-14T01:05:49;12.50;99.90
18805;DHT22;9530;48.930;9.526;2022-10-14T01:08:22;12.50;99.90
18805;DHT22;9530;48.930;9.526;2022-10-14T01:10:56;12.50;99.90
18805;DHT22;9530;48.930;9.526;2022-10-14T01:13:31;12.50;99.90
18805;DHT22;9530;48.930;9.526;2022-10-14T01:16:08;12.50;99.90
18805;DHT22;9530;48.930;9.526;2022-10-14T01:18:50;12.50;99.90
18805;DHT22;9530;48.930;9.526;2022-10-14T01:21:24;12.50;99.90
18805;DHT22;9530;48.930;9.526;2022-10-14T01:27:26;12.50;99.90
18805;DHT22;9530;48.930;9.526;2022-10-14T01:30:08;12.50;99.90
18805;DHT22;9530;48.930;9.526;2022-10-14T01:32:42;12.50;99.90
18805;DHT22;9530;48.930;9.526;2022-10-14T01:35:18;12.50;99.90
18805;DHT22;9530;48.930;9.526;2022-10-14T01:37:49;12.50;99.90
18805;DHT22;9530;48.930;9.526;2022-10-14T01:40:25;12.50;99.90
18805;DHT22;9530;48.930;9.526;2022-10-14T01:42:52;12.50;99.90
18805;DHT22;9530;48.930;9.526;2022-10-14T01:45:22;12.50;99.90
18805;DHT22;9530;48.930;9.526;2022-10-14T01:47:52;12.50;99.90
18805;DHT22;9530;48.930;9.526;2022-10-14T01:50:23;12.60;99.90
18805;DHT22;9530;48.930;9.526;2022-10-14T01:52:55;12.60;99.90
18805;DHT22;9530;48.930;9.526;2022-10-14T01:55:26;12.60;99.90
18805;DHT22;9530;48.930;9.526;2022-10-14T01:57:56;12.60;99.90
18805;DHT22;9530;48.930;9.526;2022-10-14T02:00:24;12.60;99.90
18805;DHT22;9530;48.930;9.526;2022-10-14T02:02:51;12.70;99.90
18805;DHT22;9530;48.930;9.526;2022-10-14T02:05:22;12.60;99.90
18805;DHT22;9530;48.930;9.526;2022-10-14T02:07:53;12.60;99.90
18805;DHT22;9530;48.930;9.526;2022-10-14T02:10:28;12.60;99.90
18805;DHT22;9530;48.930;9.526;2022-10-14T02:13:10;12.60;99.90
18805;DHT22;9530;48.930;9.526;2022-10-14T02:15:48;12.60;99.90
18805;DHT22;9530;48.930;9.526;2022-10-14T02:18:24;12.70;99.90
18805;DHT22;9530;48.930;9.526;2022-10-14T02:20:55;12.60;99.90
18805;DHT22;9530;48.930;9.526;2022-10-14T02:23:27;12.60;99.90
18805;DHT22;9530;48.930;9.526;2022-10-14T02:25:56;12.60;99.90
18805;DHT22;9530;48.930;9.526;2022-10-14T02:28:25;12.70;99.90
18805;DHT22;9530;48.930;9.526;2022-10-14T02:30:56;12.70;99.90
18805;DHT22;9530;48.930;9.526;2022-10-14T02:33:27;12.70;99.90
18805;DHT22;9530;48.930;9.526;2022-10-14T02:35:58;12.70;99.90
18805;DHT22;9530;48.930;9.526;2022-10-14T02:38:27;12.70;99.90
18805;DHT22;9530;48.930;9.526;2022-10-14T02:40:56;12.70;99.90
18805;DHT22;9530;48.930;9.526;2022-10-14T02:43:26;12.70;99.90
18805;DHT22;9530;48.930;9.526;2022-10-14T02:45:57;12.70;99.90
18805;DHT22;9530;48.930;9.526;2022-10-14T02:48:24;12.70;99.90
18805;DHT22;9530;48.930;9.526;2022-10-14T02:50:51;12.70;99.90
18805;DHT22;9530;48.930;9.526;2022-10-14T02:53:17;12.70;99.90
18805;DHT22;9530;48.930;9.526;2022-10-14T02:55:44;12.80;99.90
18805;DHT22;9530;48.930;9.526;2022-10-14T02:58:11;12.70;99.90
18805;DHT22;9530;48.930;9.526;2022-10-14T03:00:38;12.70;99.90
18805;DHT22;9530;48.930;9.526;2022-10-14T03:03:06;12.70;99.90
18805;DHT22;9530;48.930;9.526;2022-10-14T03:05:33;12.70;99.90
18805;DHT22;9530;48.930;9.526;2022-10-14T03:08:00;12.70;99.90
18805;DHT22;9530;48.930;9.526;2022-10-14T03:10:26;12.70;99.90
18805;DHT22;9530;48.930;9.526;2022-10-14T03:12:53;12.70;99.90
18805;DHT22;9530;48.930;9.526;2022-10-14T03:15:20;12.70;99.90
18805;DHT22;9530;48.930;9.526;2022-10-14T03:17:47;12.70;99.90
18805;DHT22;9530;48.930;9.526;2022-10-14T03:20:15;12.70;99.90
18805;DHT22;9530;48.930;9.526;2022-10-14T03:22:42;12.70;99.90
18805;DHT22;9530;48.930;9.526;2022-10-14T03:25:09;12.70;99.90
18805;DHT22;9530;48.930;9.526;2022-10-14T03:27:36;12.70;99.90
18805;DHT22;9530;48.930;9.526;2022-10-14T03:30:03;12.70;99.90
18805;DHT22;9530;48.930;9.526;2022-10-14T03:32:30;12.70;99.90
18805;DHT22;9530;48.930;9.526;2022-10-14T03:34:56;12.70;99.90
18805;DHT22;9530;48.930;9.526;2022-10-14T03:37:24;12.70;99.90
18805;DHT22;9530;48.930;9.526;2022-10-14T03:39:51;12.70;99.90
18805;DHT22;9530;48.930;9.526;2022-10-14T03:42:18;12.70;99.90
18805;DHT22;9530;48.930;9.526;2022-10-14T03:44:45;12.60;99.90
18805;DHT22;9530;48.930;9.526;2022-10-14T03:47:11;12.70;99.90
18805;DHT22;9530;48.930;9.526;2022-10-14T03:49:38;12.60;99.90
18805;DHT22;9530;48.930;9.526;2022-10-14T03:52:05;12.60;99.90
18805;DHT22;9530;48.930;9.526;2022-10-14T03:54:33;12.60;99.90
18805;DHT22;9530;48.930;9.526;2022-10-14T03:56:59;12.60;99.90
18805;DHT22;9530;48.930;9.526;2022-10-14T03:59:26;12.60;99.90
18805;DHT22;9530;48.930;9.526;2022-10-14T04:01:53;12.60;99.90
18805;DHT22;9530;48.930;9.526;2022-10-14T04:04:20;12.60;99.90
18805;DHT22;9530;48.930;9.526;2022-10-14T04:06:46;12.50;99.90
18805;DHT22;9530;48.930;9.526;2022-10-14T04:09:13;12.50;99.90
18805;DHT22;9530;48.930;9.526;2022-10-14T04:11:41;12.50;99.90
18805;DHT22;9530;48.930;9.526;2022-10-14T04:14:08;12.50;99.90
18805;DHT22;9530;48.930;9.526;2022-10-14T04:16:35;12.50;99.90
18805;DHT22;9530;48.930;9.526;2022-10-14T04:19:02;12.50;99.90
18805;DHT22;9530;48.930;9.526;2022-10-14T04:21:28;12.60;99.90
18805;DHT22;9530;48.930;9.526;2022-10-14T04:23:55;12.50;99.90
18805;DHT22;9530;48.930;9.526;2022-10-14T04:26:22;12.50;99.90
18805;DHT22;9530;48.930;9.526;2022-10-14T04:28:50;12.50;99.90
18805;DHT22;9530;48.930;9.526;2022-10-14T04:31:17;12.50;99.90
18805;DHT22;9530;48.930;9.526;2022-10-14T04:33:43;12.40;99.90
18805;DHT22;9530;48.930;9.526;2022-10-14T04:36:10;12.40;99.90
18805;DHT22;9530;48.930;9.526;2022-10-14T04:38:37;12.40;99.90
18805;DHT22;9530;48.930;9.526;2022-10-14T04:41:03;12.30;99.90
18805;DHT22;9530;48.930;9.526;2022-10-14T04:43:30;12.40;99.90
18805;DHT22;9530;48.930;9.526;2022-10-14T04:45:58;12.30;99.90
18805;DHT22;9530;48.930;9.526;2022-10-14T04:48:25;12.30;99.90
18805;DHT22;9530;48.930;9.526;2022-10-14T04:50:53;12.40;99.90
18805;DHT22;9530;48.930;9.526;2022-10-14T04:53:20;12.40;99.90
18805;DHT22;9530;48.930;9.526;2022-10-14T04:55:47;12.40;99.90
18805;DHT22;9530;48.930;9.526;2022-10-14T04:58:14;12.40;99.90
18805;DHT22;9530;48.930;9.526;2022-10-14T05:00:41;12.40;99.90
18805;DHT22;9530;48.930;9.526;2022-10-14T05:03:09;12.40;99.90
18805;DHT22;9530;48.930;9.526;2022-10-14T05:05:35;12.30;99.90
18805;DHT22;9530;48.930;9.526;2022-10-14T05:08:02;12.30;99.90
18805;DHT22;9530;48.930;9.526;2022-10-14T05:10:29;12.30;99.90
18805;DHT22;9530;48.930;9.526;2022-10-14T05:12:56;12.20;99.90
18805;DHT22;9530;48.930;9.526;2022-10-14T05:15:22;12.20;99.90
18805;DHT22;9530;48.930;9.526;2022-10-14T05:17:49;12.20;99.90
18805;DHT22;9530;48.930;9.526;2022-10-14T05:20:17;12.20;99.90
18805;DHT22;9530;48.930;9.526;2022-10-14T05:22:44;12.20;99.90
18805;DHT22;9530;48.930;9.526;2022-10-14T05:25:11;12.10;99.90
18805;DHT22;9530;48.930;9.526;2022-10-14T05:27:37;12.20;99.90
18805;DHT22;9530;48.930;9.526;2022-10-14T05:30:05;12.20;99.90
18805;DHT22;9530;48.930;9.526;2022-10-14T05:32:32;12.10;99.90
18805;DHT22;9530;48.930;9.526;2022-10-14T05:34:58;12.10;99.90
18805;DHT22;9530;48.930;9.526;2022-10-14T05:37:26;12.20;99.90
18805;DHT22;9530;48.930;9.526;2022-10-14T05:39:53;12.10;99.90
18805;DHT22;9530;48.930;9.526;2022-10-14T05:42:20;12.10;99.90
18805;DHT22;9530;48.930;9.526;2022-10-14T05:44:47;12.10;99.90
18805;DHT22;9530;48.930;9.526;2022-10-14T05:47:14;12.20;99.90
18805;DHT22;9530;48.930;9.526;2022-10-14T05:49:40;12.20;99.90
18805;DHT22;9530;48.930;9.526;2022-10-14T05:52:07;12.20;99.90
18805;DHT22;9530;48.930;9.526;2022-10-14T05:54:35;12.20;99.90
18805;DHT22;9530;48.930;9.526;2022-10-14T05:57:02;12.20;99.90
18805;DHT22;9530;48.930;9.526;2022-10-14T05:59:28;12.30;99.90
18805;DHT22;9530;48.930;9.526;2022-10-14T06:01:57;12.30;99.90
18805;DHT22;9530;48.930;9.526;2022-10-14T06:04:24;12.30;99.90
18805;DHT22;9530;48.930;9.526;2022-10-14T06:06:51;12.30;99.90
18805;DHT22;9530;48.930;9.526;2022-10-14T06:09:18;12.30;99.90
18805;DHT22;9530;48.930;9.526;2022-10-14T06:11:46;12.30;99.90
18805;DHT22;9530;48.930;9.526;2022-10-14T06:14:13;12.40;99.90
18805;DHT22;9530;48.930;9.526;2022-10-14T06:16:40;12.50;99.90
18805;DHT22;9530;48.930;9.526;2022-10-14T06:19:07;12.40;99.90
18805;DHT22;9530;48.930;9.526;2022-10-14T06:21:33;12.40;99.90
18805;DHT22;9530;48.930;9.526;2022-10-14T06:24:00;12.50;99.90
18805;DHT22;9530;48.930;9.526;2022-10-14T06:26:27;12.60;99.90
18805;DHT22;9530;48.930;9.526;2022-10-14T06:28:55;12.60;99.90
18805;DHT22;9530;48.930;9.526;2022-10-14T06:31:21;12.70;99.90
18805;DHT22;9530;48.930;9.526;2022-10-14T06:33:48;12.70;99.90
18805;DHT22;9530;48.930;9.526;2022-10-14T06:36:15;12.70;99.90
18805;DHT22;9530;48.930;9.526;2022-10-14T06:38:42;12.70;99.90
18805;DHT22;9530;48.930;9.526;2022-10-14T06:41:09;12.80;99.90
18805;DHT22;9530;48.930;9.526;2022-10-14T06:43:35;12.90;99.90
18805;DHT22;9530;48.930;9.526;2022-10-14T06:46:04;12.90;99.90
18805;DHT22;9530;48.930;9.526;2022-10-14T06:48:31;13.00;99.90
18805;DHT22;9530;48.930;9.526;2022-10-14T06:50:58;13.20;99.90
18805;DHT22;9530;48.930;9.526;2022-10-14T06:53:25;13.20;99.90
18805;DHT22;9530;48.930;9.526;2022-10-14T06:55:56;13.30;99.90
18805;DHT22;9530;48.930;9.526;2022-10-14T06:58:23;13.40;99.90
18805;DHT22;9530;48.930;9.526;2022-10-14T07:00:50;13.30;99.90
18805;DHT22;9530;48.930;9.526;2022-10-14T07:03:18;13.40;99.90
18805;DHT22;9530;48.930;9.526;2022-10-14T07:05:45;13.40;99.90
18805;DHT22;9530;48.930;9.526;2022-10-14T07:08:12;13.40;99.90
18805;DHT22;9530;48.930;9.526;2022-10-14T07:10:39;13.40;99.90
18805;DHT22;9530;48.930;9.526;2022-10-14T07:13:06;13.40;99.90
18805;DHT22;9530;48.930;9.526;2022-10-14T07:15:33;13.50;99.90
18805;DHT22;9530;48.930;9.526;2022-10-14T07:17:59;13.60;99.90
18805;DHT22;9530;48.930;9.526;2022-10-14T07:20:27;13.70;99.90
18805;DHT22;9530;48.930;9.526;2022-10-14T07:22:54;13.90;99.90
18805;DHT22;9530;48.930;9.526;2022-10-14T07:25:21;13.90;99.90
18805;DHT22;9530;48.930;9.526;2022-10-14T07:27:50;14.00;99.90
18805;DHT22;9530;48.930;9.526;2022-10-14T07:30:16;14.00;99.90
18805;DHT22;9530;48.930;9.526;2022-10-14T07:32:43;14.10;99.90
18805;DHT22;9530;48.930;9.526;2022-10-14T07:35:10;14.20;99.90
18805;DHT22;9530;48.930;9.526;2022-10-14T07:37:38;14.10;99.90
18805;DHT22;9530;48.930;9.526;2022-10-14T07:40:06;14.30;99.90
18805;DHT22;9530;48.930;9.526;2022-10-14T07:42:33;14.30;99.90
18805;DHT22;9530;48.930;9.526;2022-10-14T07:45:00;14.40;99.90
18805;DHT22;9530;48.930;9.526;2022-10-14T07:47:27;14.40;99.90
18805;DHT22;9530;48.930;9.526;2022-10-14T07:49:53;14.40;99.90
18805;DHT22;9530;48.930;9.526;2022-10-14T07:52:20;14.40;99.90
18805;DHT22;9530;48.930;9.526;2022-10-14T07:54:48;14.50;99.90
18805;DHT22;9530;48.930;9.526;2022-10-14T07:57:15;14.50;99.90
18805;DHT22;9530;48.930;9.526;2022-10-14T07:59:42;14.50;99.90
18805;DHT22;9530;48.930;9.526;2022-10-14T08:02:10;14.60;99.90
18805;DHT22;9530;48.930;9.526;2022-10-14T08:04:36;14.70;99.90
18805;DHT22;9530;48.930;9.526;2022-10-14T08:07:04;14.80;99.90
18805;DHT22;9530;48.930;9.526;2022-10-14T08:09:30;14.90;99.90
18805;DHT22;9530;48.930;9.526;2022-10-14T08:12:01;15.10;99.90
18805;DHT22;9530;48.930;9.526;2022-10-14T08:14:27;15.20;99.90
18805;DHT22;9530;48.930;9.526;2022-10-14T08:16:54;15.20;99.90
18805;DHT22;9530;48.930;9.526;2022-10-14T08:19:21;15.30;99.90
18805;DHT22;9530;48.930;9.526;2022-10-14T08:21:48;15.60;99.90
18805;DHT22;9530;48.930;9.526;2022-10-14T08:24:14;15.50;99.90
18805;DHT22;9530;48.930;9.526;2022-10-14T08:26:48;15.70;99.90
18805;DHT22;9530;48.930;9.526;2022-10-14T08:29:17;15.90;99.90
18805;DHT22;9530;48.930;9.526;2022-10-14T08:31:44;16.00;99.90
18805;DHT22;9530;48.930;9.526;2022-10-14T08:34:11;16.00;99.90
18805;DHT22;9530;48.930;9.526;2022-10-14T08:36:38;16.00;99.90
18805;DHT22;9530;48.930;9.526;2022-10-14T08:39:05;15.90;99.90
18805;DHT22;9530;48.930;9.526;2022-10-14T08:41:49;16.00;99.90
18805;DHT22;9530;48.930;9.526;2022-10-14T08:44:22;16.00;99.90
18805;DHT22;9530;48.930;9.526;2022-10-14T08:46:52;16.20;99.90
18805;DHT22;9530;48.930;9.526;2022-10-14T08:49:24;16.10;99.90
18805;DHT22;9530;48.930;9.526;2022-10-14T08:51:56;16.30;99.90
18805;DHT22;9530;48.930;9.526;2022-10-14T08:54:29;16.20;99.90
18805;DHT22;9530;48.930;9.526;2022-10-14T08:56:58;16.20;99.90
18805;DHT22;9530;48.930;9.526;2022-10-14T08:59:26;16.30;99.90
18805;DHT22;9530;48.930;9.526;2022-10-14T09:01:57;16.30;99.90
18805;DHT22;9530;48.930;9.526;2022-10-14T09:04:25;16.60;99.90
18805;DHT22;9530;48.930;9.526;2022-10-14T09:06:52;16.60;99.90
18805;DHT22;9530;48.930;9.526;2022-10-14T09:09:22;16.50;99.90
18805;DHT22;9530;48.930;9.526;2022-10-14T09:11:53;16.60;99.90
18805;DHT22;9530;48.930;9.526;2022-10-14T09:14:27;16.50;99.90
18805;DHT22;9530;48.930;9.526;2022-10-14T09:17:01;16.70;99.90
18805;DHT22;9530;48.930;9.526;2022-10-14T09:19:31;16.80;99.90
18805;DHT22;9530;48.930;9.526;2022-10-14T09:21:59;16.60;99.90
18805;DHT22;9530;48.930;9.526;2022-10-14T09:24:27;16.50;99.90
18805;DHT22;9530;48.930;9.526;2022-10-14T09:26:59;16.60;99.90
18805;DHT22;9530;48.930;9.526;2022-10-14T09:29:30;16.40;99.90
18805;DHT22;9530;48.930;9.526;2022-10-14T09:32:02;16.20;99.90
18805;DHT22;9530;48.930;9.526;2022-10-14T09:34:33;16.20;99.90
18805;DHT22;9530;48.930;9.526;2022-10-14T09:37:17;16.00;99.90
18805;DHT22;9530;48.930;9.526;2022-10-14T09:39:46;16.00;99.90
18805;DHT22;9530;48.930;9.526;2022-10-14T09:42:18;15.90;99.90
18805;DHT22;9530;48.930;9.526;2022-10-14T09:45:03;16.00;99.90
18805;DHT22;9530;48.930;9.526;2022-10-14T09:47:34;15.90;99.90
18805;DHT22;9530;48.930;9.526;2022-10-14T09:50:07;15.90;99.90
18805;DHT22;9530;48.930;9.526;2022-10-14T09:52:35;15.90;99.90
18805;DHT22;9530;48.930;9.526;2022-10-14T09:55:05;15.80;99.90
18805;DHT22;9530;48.930;9.526;2022-10-14T09:57:33;16.00;99.90
18805;DHT22;9530;48.930;9.526;2022-10-14T10:00:03;16.00;99.90
18805;DHT22;9530;48.930;9.526;2022-10-14T10:02:38;15.90;99.90
18805;DHT22;9530;48.930;9.526;2022-10-14T10:05:20;16.00;99.90
18805;DHT22;9530;48.930;9.526;2022-10-14T10:07:59;16.10;99.90
18805;DHT22;9530;48.930;9.526;2022-10-14T10:10:27;16.40;99.90
18805;DHT22;9530;48.930;9.526;2022-10-14T10:12:56;16.60;99.90
18805;DHT22;9530;48.930;9.526;2022-10-14T10:15:24;16.60;99.90
18805;DHT22;9530;48.930;9.526;2022-10-14T10:17:52;16.80;99.90
18805;DHT22;9530;48.930;9.526;2022-10-14T10:20:22;16.80;99.90
18805;DHT22;9530;48.930;9.526;2022-10-14T10:22:53;16.80;99.90
18805;DHT22;9530;48.930;9.526;2022-10-14T10:25:23;16.80;99.90
18805;DHT22;9530;48.930;9.526;2022-10-14T10:27:57;16.80;99.90
18805;DHT22;9530;48.930;9.526;2022-10-14T10:30:27;16.90;99.90
18805;DHT22;9530;48.930;9.526;2022-10-14T10:33:02;17.00;99.90
18805;DHT22;9530;48.930;9.526;2022-10-14T10:35:43;17.10;99.90
18805;DHT22;9530;48.930;9.526;2022-10-14T10:38:21;17.20;99.90
18805;DHT22;9530;48.930;9.526;2022-10-14T10:40:58;17.40;99.90
18805;DHT22;9530;48.930;9.526;2022-10-14T10:46:48;17.60;99.90
18805;DHT22;9530;48.930;9.526;2022-10-14T10:49:28;17.40;99.90
18805;DHT22;9530;48.930;9.526;2022-10-14T10:52:00;17.40;99.90
18805;DHT22;9530;48.930;9.526;2022-10-14T10:54:38;17.40;99.90
18805;DHT22;9530;48.930;9.526;2022-10-14T10:57:16;17.50;99.90
18805;DHT22;9530;48.930;9.526;2022-10-14T10:59:54;17.50;99.90
18805;DHT22;9530;48.930;9.526;2022-10-14T11:02:47;17.50;99.90
18805;DHT22;9530;48.930;9.526;2022-10-14T11:05:19;17.60;99.90
18805;DHT22;9530;48.930;9.526;2022-10-14T11:07:55;17.90;99.90
18805;DHT22;9530;48.930;9.526;2022-10-14T11:10:49;18.00;99.90
18805;DHT22;9530;48.930;9.526;2022-10-14T11:13:41;18.10;99.90
18805;DHT22;9530;48.930;9.526;2022-10-14T11:16:14;18.10;99.90
18805;DHT22;9530;48.930;9.526;2022-10-14T11:18:48;18.20;99.90
18805;DHT22;9530;48.930;9.526;2022-10-14T11:21:23;18.20;99.90
18805;DHT22;9530;48.930;9.526;2022-10-14T11:23:58;18.10;99.90
18805;DHT22;9530;48.930;9.526;2022-10-14T11:29:42;18.40;99.90
18805;DHT22;9530;48.930;9.526;2022-10-14T11:32:19;18.40;99.90
18805;DHT22;9530;48.930;9.526;2022-10-14T11:34:56;18.50;99.90
18805;DHT22;9530;48.930;9.526;2022-10-14T11:37:41;18.30;99.90
18805;DHT22;9530;48.930;9.526;2022-10-14T11:40:17;18.10;99.90
18805;DHT22;9530;48.930;9.526;2022-10-14T11:42:56;18.10;99.90
18805;DHT22;9530;48.930;9.526;2022-10-14T11:45:47;18.00;99.90
18805;DHT22;9530;48.930;9.526;2022-10-14T11:48:26;17.90;99.90
18805;DHT22;9530;48.930;9.526;2022-10-14T11:50:58;17.90;99.90
18805;DHT22;9530;48.930;9.526;2022-10-14T11:53:47;17.70;99.90
18805;DHT22;9530;48.930;9.526;2022-10-14T11:56:25;17.50;99.90
18805;DHT22;9530;48.930;9.526;2022-10-14T11:58:57;17.40;99.90
18805;DHT22;9530;48.930;9.526;2022-10-14T12:01:26;17.30;99.90
18805;DHT22;9530;48.930;9.526;2022-10-14T12:03:59;17.30;99.90
18805;DHT22;9530;48.930;9.526;2022-10-14T12:06:34;17.40;99.90
18805;DHT22;9530;48.930;9.526;2022-10-14T12:09:09;17.30;99.90
18805;DHT22;9530;48.930;9.526;2022-10-14T12:11:41;17.30;99.90
18805;DHT22;9530;48.930;9.526;2022-10-14T12:14:13;17.20;99.90
18805;DHT22;9530;48.930;9.526;2022-10-14T12:16:45;17.20;99.90
18805;DHT22;9530;48.930;9.526;2022-10-14T12:19:16;17.10;99.90
18805;DHT22;9530;48.930;9.526;2022-10-14T12:21:52;17.20;99.90
18805;DHT22;9530;48.930;9.526;2022-10-14T12:24:20;17.00;99.90
18805;DHT22;9530;48.930;9.526;2022-10-14T12:26:51;16.90;99.90
18805;DHT22;9530;48.930;9.526;2022-10-14T12:29:20;16.90;99.90
18805;DHT22;9530;48.930;9.526;2022-10-14T12:31:50;16.80;99.90
18805;DHT22;9530;48.930;9.526;2022-10-14T12:34:33;16.60;99.90
18805;DHT22;9530;48.930;9.526;2022-10-14T12:40:30;16.70;99.90
18805;DHT22;9530;48.930;9.526;2022-10-14T12:43:15;16.80;99.90
18805;DHT22;9530;48.930;9.526;2022-10-14T12:46:11;17.10;99.90
18805;DHT22;9530;48.930;9.526;2022-10-14T12:48:45;17.30;99.90
18805;DHT22;9530;48.930;9.526;2022-10-14T12:51:16;17.60;99.90
18805;DHT22;9530;48.930;9.526;2022-10-14T12:53:53;17.70;99.90
18805;DHT22;9530;48.930;9.526;2022-10-14T12:56:32;17.90;99.90
18805;DHT22;9530;48.930;9.526;2022-10-14T12:59:01;18.00;99.90
18805;DHT22;9530;48.930;9.526;2022-10-14T13:01:29;18.00;99.90
18805;DHT22;9530;48.930;9.526;2022-10-14T13:03:58;17.90;99.90
18805;DHT22;9530;48.930;9.526;2022-10-14T13:06:29;18.10;99.90
18805;DHT22;9530;48.930;9.526;2022-10-14T13:09:16;18.10;99.90
18805;DHT22;9530;48.930;9.526;2022-10-14T13:11:45;18.40;99.90
18805;DHT22;9530;48.930;9.526;2022-10-14T13:14:53;18.60;99.90
18805;DHT22;9530;48.930;9.526;2022-10-14T13:17:41;18.70;99.90
18805;DHT22;9530;48.930;9.526;2022-10-14T13:23:21;18.70;99.90
18805;DHT22;9530;48.930;9.526;2022-10-14T13:25:56;18.40;99.90
18805;DHT22;9530;48.930;9.526;2022-10-14T13:28:35;18.40;99.90
18805;DHT22;9530;48.930;9.526;2022-10-14T13:31:09;18.40;99.90
18805;DHT22;9530;48.930;9.526;2022-10-14T13:33:41;18.40;99.90
18805;DHT22;9530;48.930;9.526;2022-10-14T13:36:13;18.40;99.90
18805;DHT22;9530;48.930;9.526;2022-10-14T13:38:44;18.30;99.90
18805;DHT22;9530;48.930;9.526;2022-10-14T13:41:16;18.10;99.90
18805;DHT22;9530;48.930;9.526;2022-10-14T13:43:50;18.00;99.90
18805;DHT22;9530;48.930;9.526;2022-10-14T13:46:23;17.90;99.90
18805;DHT22;9530;48.930;9.526;2022-10-14T13:48:55;17.90;99.90
18805;DHT22;9530;48.930;9.526;2022-10-14T13:51:28;17.80;99.90
18805;DHT22;9530;48.930;9.526;2022-10-14T13:54:08;17.80;99.90
18805;DHT22;9530;48.930;9.526;2022-10-14T13:56:35;17.70;99.90
18805;DHT22;9530;48.930;9.526;2022-10-14T13:59:17;17.50;99.90
18805;DHT22;9530;48.930;9.526;2022-10-14T14:01:44;17.50;99.90
18805;DHT22;9530;48.930;9.526;2022-10-14T14:04:20;17.40;99.90
18805;DHT22;9530;48.930;9.526;2022-10-14T14:06:48;17.50;99.90
18805;DHT22;9530;48.930;9.526;2022-10-14T14:09:19;17.40;99.90
18805;DHT22;9530;48.930;9.526;2022-10-14T14:11:47;17.40;99.90
18805;DHT22;9530;48.930;9.526;2022-10-14T14:14:19;17.40;99.90
18805;DHT22;9530;48.930;9.526;2022-10-14T14:16:51;17.40;99.90
18805;DHT22;9530;48.930;9.526;2022-10-14T14:19:19;17.40;99.90
18805;DHT22;9530;48.930;9.526;2022-10-14T14:21:46;17.60;99.90
18805;DHT22;9530;48.930;9.526;2022-10-14T14:24:19;17.50;99.90
18805;DHT22;9530;48.930;9.526;2022-10-14T14:26:47;17.70;99.90
18805;DHT22;9530;48.930;9.526;2022-10-14T14:29:17;17.80;99.90
18805;DHT22;9530;48.930;9.526;2022-10-14T14:31:45;17.90;99.90
18805;DHT22;9530;48.930;9.526;2022-10-14T14:34:15;18.00;99.90
18805;DHT22;9530;48.930;9.526;2022-10-14T14:36:42;18.10;99.90
18805;DHT22;9530;48.930;9.526;2022-10-14T14:39:19;18.00;99.90
18805;DHT22;9530;48.930;9.526;2022-10-14T14:41:49;18.00;99.90
18805;DHT22;9530;48.930;9.526;2022-10-14T14:44:19;17.90;99.90
18805;DHT22;9530;48.930;9.526;2022-10-14T14:46:47;17.80;99.90
18805;DHT22;9530;48.930;9.526;2022-10-14T14:49:16;17.90;99.90
18805;DHT22;9530;48.930;9.526;2022-10-14T14:51:43;17.90;99.90
18805;DHT22;9530;48.930;9.526;2022-10-14T14:54:16;17.80;99.90
18805;DHT22;9530;48.930;9.526;2022-10-14T14:56:45;17.90;99.90
18805;DHT22;9530;48.930;9.526;2022-10-14T14:59:24;17.90;99.90
18805;DHT22;9530;48.930;9.526;2022-10-14T15:01:53;17.80;99.90
18805;DHT22;9530;48.930;9.526;2022-10-14T15:04:21;17.80;99.90
18805;DHT22;9530;48.930;9.526;2022-10-14T15:06:50;17.80;99.90
18805;DHT22;9530;48.930;9.526;2022-10-14T15:09:23;17.80;99.90
18805;DHT22;9530;48.930;9.526;2022-10-14T15:11:54;17.70;99.90
18805;DHT22;9530;48.930;9.526;2022-10-14T15:14:33;17.60;99.90
18805;DHT22;9530;48.930;9.526;2022-10-14T15:16:59;17.40;99.90
18805;DHT22;9530;48.930;9.526;2022-10-14T15:19:33;17.30;99.90
18805;DHT22;9530;48.930;9.526;2022-10-14T15:22:18;17.20;99.90
18805;DHT22;9530;48.930;9.526;2022-10-14T15:24:56;17.00;99.90
18805;DHT22;9530;48.930;9.526;2022-10-14T15:27:39;17.00;99.90
18805;DHT22;9530;48.930;9.526;2022-10-14T15:30:22;16.90;99.90
18805;DHT22;9530;48.930;9.526;2022-10-14T15:32:53;16.80;99.90
18805;DHT22;9530;48.930;9.526;2022-10-14T15:35:22;16.70;99.90
18805;DHT22;9530;48.930;9.526;2022-10-14T15:37:50;16.60;99.90
18805;DHT22;9530;48.930;9.526;2022-10-14T15:40:19;16.50;99.90
18805;DHT22;9530;48.930;9.526;2022-10-14T15:42:46;16.50;99.90
18805;DHT22;9530;48.930;9.526;2022-10-14T15:45:14;16.50;99.90
18805;DHT22;9530;48.930;9.526;2022-10-14T15:47:42;16.50;99.90
18805;DHT22;9530;48.930;9.526;2022-10-14T15:50:15;16.60;99.90
18805;DHT22;9530;48.930;9.526;2022-10-14T15:52:42;16.60;99.90
18805;DHT22;9530;48.930;9.526;2022-10-14T15:55:14;16.60;99.90
18805;DHT22;9530;48.930;9.526;2022-10-14T15:57:41;16.40;99.90
18805;DHT22;9530;48.930;9.526;2022-10-14T16:00:09;16.30;99.90
18805;DHT22;9530;48.930;9.526;2022-10-14T16:02:36;16.30;99.90
18805;DHT22;9530;48.930;9.526;2022-10-14T16:05:04;16.30;99.90
18805;DHT22;9530;48.930;9.526;2022-10-14T16:07:31;16.30;99.90
18805;DHT22;9530;48.930;9.526;2022-10-14T16:09:58;16.20;99.90
18805;DHT22;9530;48.930;9.526;2022-10-14T16:12:25;16.20;99.90
18805;DHT22;9530;48.930;9.526;2022-10-14T16:14:51;16.10;99.90
18805;DHT22;9530;48.930;9.526;2022-10-14T16:17:18;16.00;99.90
18805;DHT22;9530;48.930;9.526;2022-10-14T16:19:45;16.10;99.90
18805;DHT22;9530;48.930;9.526;2022-10-14T16:22:13;16.10;99.90